createdAt,value
2018-09-21T00:02:07.231Z,95.70
2018-09-21T00:04:36.120Z,95.80
2018-09-21T00:07:04.996Z,95.90
2018-09-21T00:09:33.921Z,95.80
2018-09-21T00:12:02.802Z,95.90
2018-09-21T00:14:31.756Z,96.50
2018-09-21T00:17:00.641Z,96.40
2018-09-21T00:19:29.480Z,96.40
2018-09-21T00:21:58.388Z,96.60
2018-09-21T00:24:27.343Z,97.10
2018-09-21T00:26:56.223Z,97.00
2018-09-21T00:29:25.096Z,97.00
2018-09-21T00:31:54.000Z,96.90
2018-09-21T00:34:22.877Z,97.00
2018-09-21T00:36:51.793Z,96.90
2018-09-21T00:39:20.725Z,97.00
2018-09-21T00:41:49.634Z,97.10
2018-09-21T00:44:18.509Z,97.20
2018-09-21T00:46:47.511Z,97.20
2018-09-21T00:49:16.529Z,97.30
2018-09-21T00:51:45.449Z,97.20
2018-09-21T00:54:14.435Z,97.30
2018-09-21T00:56:43.279Z,97.40
2018-09-21T00:59:12.162Z,97.30
2018-09-21T01:01:41.100Z,97.40
2018-09-21T01:04:09.953Z,97.30
2018-09-21T01:06:38.815Z,97.20
2018-09-21T01:09:09.835Z,97.20
2018-09-21T01:11:39.344Z,97.20
2018-09-21T01:14:08.430Z,97.30
2018-09-21T01:16:37.369Z,97.10
2018-09-21T01:19:06.575Z,96.90
2018-09-21T01:21:35.441Z,97.00
2018-09-21T01:24:04.678Z,97.20
2018-09-21T01:26:33.541Z,97.40
2018-09-21T01:29:02.512Z,97.50
2018-09-21T01:31:31.518Z,97.60
2018-09-21T01:34:00.390Z,97.70
2018-09-21T01:36:29.279Z,97.70
2018-09-21T01:38:58.185Z,97.80
2018-09-21T01:41:27.065Z,97.90
2018-09-21T01:43:55.919Z,98.10
2018-09-21T01:46:24.893Z,98.00
2018-09-21T01:48:53.785Z,98.10
2018-09-21T01:51:22.653Z,98.20
2018-09-21T01:53:51.601Z,98.30
2018-09-21T01:56:20.486Z,98.50
2018-09-21T01:58:49.394Z,98.30
2018-09-21T02:01:18.400Z,98.30
2018-09-21T02:03:47.282Z,98.20
2018-09-21T02:06:16.280Z,98.40
2018-09-21T02:08:45.305Z,98.30
2018-09-21T02:11:14.261Z,98.30
2018-09-21T02:13:43.115Z,98.30
2018-09-21T02:16:12.035Z,98.30
2018-09-21T02:18:40.896Z,98.30
2018-09-21T02:21:09.795Z,98.20
2018-09-21T02:23:38.713Z,98.10
2018-09-21T02:26:07.596Z,98.00
2018-09-21T02:28:36.457Z,98.00
2018-09-21T02:31:05.630Z,97.90
2018-09-21T02:33:34.544Z,98.00
2018-09-21T02:36:03.409Z,97.90
2018-09-21T02:38:32.297Z,97.90
2018-09-21T02:41:01.252Z,97.90
2018-09-21T02:43:30.122Z,98.00
2018-09-21T02:45:59.085Z,98.10
2018-09-21T02:48:27.928Z,98.30
2018-09-21T02:50:56.826Z,98.30
2018-09-21T02:53:25.734Z,98.50
2018-09-21T02:55:54.599Z,98.70
2018-09-21T02:58:23.446Z,98.70
2018-09-21T03:00:52.522Z,98.70
2018-09-21T03:03:21.339Z,98.70
2018-09-21T03:05:50.247Z,98.80
2018-09-21T03:08:19.284Z,98.70
2018-09-21T03:10:48.164Z,98.70
2018-09-21T03:13:17.056Z,98.70
2018-09-21T03:15:46.069Z,98.70
2018-09-21T03:18:14.937Z,98.80
2018-09-21T03:20:43.817Z,98.70
2018-09-21T03:23:12.742Z,98.70
2018-09-21T03:25:41.580Z,98.70
2018-09-21T03:28:10.445Z,98.80
2018-09-21T03:30:39.474Z,98.70
2018-09-21T03:33:08.371Z,98.70
2018-09-21T03:35:37.244Z,98.60
2018-09-21T03:38:06.186Z,98.50
2018-09-21T03:40:35.130Z,98.50
2018-09-21T03:43:04.025Z,98.50
2018-09-21T03:45:32.956Z,98.50
2018-09-21T03:48:01.850Z,98.50
2018-09-21T03:50:30.740Z,98.60
2018-09-21T03:52:59.644Z,98.70
2018-09-21T03:55:28.525Z,98.60
2018-09-21T03:57:57.413Z,98.70
2018-09-21T04:00:26.513Z,98.70
2018-09-21T04:02:55.463Z,98.70
2018-09-21T04:05:24.323Z,98.80
2018-09-21T04:07:53.221Z,98.80
2018-09-21T04:10:22.083Z,98.90
2018-09-21T04:12:50.956Z,99.10
2018-09-21T04:15:19.902Z,99.30
2018-09-21T04:17:48.886Z,99.60
2018-09-21T04:20:17.749Z,99.80
2018-09-21T04:22:57.739Z,99.60
2018-09-21T04:25:26.662Z,99.80
2018-09-21T04:27:55.590Z,99.80
2018-09-21T04:30:24.973Z,99.70
2018-09-21T04:32:53.838Z,99.60
2018-09-21T04:35:22.716Z,99.60
2018-09-21T04:37:51.961Z,99.40
2018-09-21T04:40:20.992Z,99.20
2018-09-21T04:42:49.974Z,99.10
2018-09-21T04:45:19.224Z,99.00
2018-09-21T04:47:48.180Z,98.80
2018-09-21T04:50:17.098Z,98.70
2018-09-21T04:52:46.510Z,98.60
2018-09-21T04:55:15.461Z,98.50
2018-09-21T04:57:44.335Z,98.30
2018-09-21T05:00:13.285Z,98.20
2018-09-21T05:02:42.174Z,98.10
2018-09-21T05:05:11.200Z,97.90
2018-09-21T05:07:40.063Z,97.70
2018-09-21T05:10:09.033Z,97.40
2018-09-21T05:12:37.959Z,97.10
2018-09-21T05:15:06.994Z,96.90
2018-09-21T05:17:35.958Z,96.60
2018-09-21T05:20:05.069Z,96.50
2018-09-21T05:22:33.973Z,96.40
2018-09-21T05:25:02.850Z,96.00
2018-09-21T05:27:31.901Z,95.90
2018-09-21T05:30:00.761Z,95.70
2018-09-21T05:32:29.737Z,95.70
2018-09-21T05:34:58.627Z,95.50
2018-09-21T05:37:27.508Z,95.40
2018-09-21T05:39:56.525Z,95.10
2018-09-21T05:42:25.720Z,94.90
2018-09-21T05:44:54.880Z,94.90
2018-09-21T05:47:24.021Z,94.30
2018-09-21T05:49:53.079Z,94.20
2018-09-21T05:52:22.025Z,93.80
2018-09-21T05:54:51.129Z,93.60
2018-09-21T05:57:20.021Z,93.30
2018-09-21T05:59:49.520Z,93.10
2018-09-21T06:02:18.503Z,93.10
2018-09-21T06:04:47.440Z,93.00
2018-09-21T06:07:16.329Z,92.90
2018-09-21T06:09:45.289Z,92.70
2018-09-21T06:12:14.191Z,92.40
2018-09-21T06:14:43.251Z,92.10
2018-09-21T06:17:12.198Z,91.60
2018-09-21T06:19:41.080Z,91.30
2018-09-21T06:22:09.960Z,91.60
2018-09-21T06:24:38.916Z,90.90
2018-09-21T06:27:07.807Z,90.80
2018-09-21T06:29:37.378Z,90.50
2018-09-21T06:32:06.320Z,90.80
2018-09-21T06:34:35.229Z,90.70
2018-09-21T06:37:04.158Z,90.60
2018-09-21T06:39:33.184Z,90.40
2018-09-21T06:42:02.090Z,89.60
2018-09-21T06:44:31.096Z,89.80
2018-09-21T06:47:00.128Z,89.00
2018-09-21T06:49:29.218Z,89.30
2018-09-21T06:51:58.074Z,89.20
2018-09-21T06:54:27.008Z,88.30
2018-09-21T06:56:55.864Z,87.50
2018-09-21T06:59:24.765Z,87.00
2018-09-21T07:01:53.766Z,86.00
2018-09-21T07:04:22.620Z,86.00
2018-09-21T07:06:51.517Z,85.50
2018-09-21T07:09:20.606Z,85.70
2018-09-21T07:11:49.545Z,85.20
2018-09-21T07:14:18.453Z,85.00
2018-09-21T07:16:47.481Z,84.80
2018-09-21T07:19:16.462Z,84.30
2018-09-21T07:21:45.407Z,83.50
2018-09-21T07:24:14.298Z,83.80
2018-09-21T07:26:43.206Z,82.40
2018-09-21T07:29:12.121Z,81.30
2018-09-21T07:31:41.368Z,80.80
2018-09-21T07:34:10.624Z,79.50
2018-09-21T07:36:39.560Z,79.40
2018-09-21T07:39:08.783Z,77.90
2018-09-21T07:41:37.627Z,77.90
2018-09-21T07:44:06.973Z,77.60
2018-09-21T07:46:35.844Z,77.80
2018-09-21T07:49:04.802Z,78.30
2018-09-21T07:55:32.562Z,77.40
2018-09-21T07:58:01.443Z,76.60
2018-09-21T08:00:30.316Z,75.90
2018-09-21T08:02:59.211Z,74.10
2018-09-21T08:05:32.447Z,74.90
2018-09-21T08:08:02.315Z,72.80
2018-09-21T08:10:31.300Z,71.60
2018-09-21T08:13:01.961Z,73.70
2018-09-21T08:15:31.957Z,73.20
2018-09-21T08:18:00.819Z,73.30
2018-09-21T08:20:29.769Z,73.30
2018-09-21T08:22:58.789Z,72.80
2018-09-21T08:25:27.647Z,72.70
2018-09-21T08:27:56.636Z,73.00
2018-09-21T08:30:25.502Z,72.20
2018-09-21T08:32:54.365Z,72.80
2018-09-21T08:35:26.702Z,70.90
2018-09-21T08:37:55.596Z,72.60
2018-09-21T08:40:24.489Z,71.90
2018-09-21T08:42:53.350Z,71.30
2018-09-21T08:45:22.344Z,70.90
2018-09-21T08:47:51.590Z,69.00
2018-09-21T08:50:20.535Z,69.50
2018-09-21T08:52:50.374Z,70.10
2018-09-21T08:55:19.224Z,69.90
2018-09-21T08:57:48.086Z,68.80
2018-09-21T09:00:17.053Z,68.30
2018-09-21T09:02:45.974Z,67.40
2018-09-21T09:05:14.889Z,67.10
2018-09-21T09:07:43.894Z,67.30
2018-09-21T09:10:12.766Z,66.00
2018-09-21T09:12:41.633Z,66.90
2018-09-21T09:15:12.987Z,66.00
2018-09-21T09:17:41.841Z,66.00
2018-09-21T09:20:10.783Z,64.90
2018-09-21T09:22:39.712Z,66.70
2018-09-21T09:25:08.621Z,64.10
2018-09-21T09:27:37.559Z,64.80
2018-09-21T09:30:06.714Z,65.70
2018-09-21T09:32:36.325Z,64.10
2018-09-21T09:35:05.998Z,65.40
2018-09-21T09:37:34.975Z,65.50
2018-09-21T09:40:03.988Z,63.70
2018-09-21T09:42:32.854Z,63.50
2018-09-21T09:45:01.763Z,65.20
2018-09-21T09:47:30.606Z,63.40
2018-09-21T09:49:59.480Z,64.30
2018-09-21T09:52:28.486Z,63.20
2018-09-21T09:54:57.364Z,63.20
2018-09-21T09:57:26.249Z,63.90
2018-09-21T09:59:55.163Z,64.40
2018-09-21T10:02:24.013Z,63.10
2018-09-21T10:04:52.876Z,62.20
2018-09-21T10:07:23.192Z,62.30
2018-09-21T10:09:52.251Z,61.30
2018-09-21T10:12:21.125Z,60.70
2018-09-21T10:14:49.973Z,61.80
2018-09-21T10:17:18.992Z,61.10
2018-09-21T10:19:47.955Z,60.90
2018-09-21T10:22:16.861Z,60.60
2018-09-21T10:24:45.729Z,60.50
2018-09-21T10:27:14.771Z,59.90
2018-09-21T10:29:43.637Z,58.70
2018-09-21T10:32:12.509Z,58.20
2018-09-21T10:34:41.571Z,58.70
2018-09-21T10:37:10.402Z,59.30
2018-09-21T10:39:39.348Z,59.20
2018-09-21T10:42:08.718Z,58.60
2018-09-21T10:44:37.660Z,57.80
2018-09-21T10:47:06.717Z,57.30
2018-09-21T10:49:35.835Z,58.10
2018-09-21T10:52:04.886Z,56.80
2018-09-21T10:54:33.855Z,57.20
2018-09-21T10:57:02.777Z,57.00
2018-09-21T10:59:31.684Z,58.00
2018-09-21T11:02:00.654Z,58.60
2018-09-21T11:04:29.531Z,56.70
2018-09-21T11:06:58.380Z,57.10
2018-09-21T11:09:27.354Z,57.70
2018-09-21T11:11:56.240Z,56.90
2018-09-21T11:14:25.325Z,55.90
2018-09-21T11:16:54.248Z,56.90
2018-09-21T11:19:23.126Z,55.50
2018-09-21T11:21:51.987Z,56.70
2018-09-21T11:24:20.915Z,55.70
2018-09-21T11:26:49.788Z,56.00
2018-09-21T11:29:18.660Z,56.20
2018-09-21T11:31:47.595Z,55.20
2018-09-21T11:34:16.534Z,54.10
2018-09-21T11:36:45.383Z,53.20
2018-09-21T11:39:14.313Z,53.70
2018-09-21T11:41:43.173Z,52.50
2018-09-21T11:44:12.037Z,53.10
2018-09-21T11:46:40.989Z,53.30
2018-09-21T11:49:10.031Z,52.50
2018-09-21T11:51:38.976Z,52.40
2018-09-21T11:54:07.900Z,52.30
2018-09-21T11:56:36.802Z,53.00
2018-09-21T11:59:05.734Z,51.90
2018-09-21T12:01:34.749Z,51.20
2018-09-21T12:04:03.718Z,52.50
2018-09-21T12:06:32.660Z,51.90
2018-09-21T12:09:01.622Z,51.40
2018-09-21T12:11:30.547Z,51.70
2018-09-21T12:13:59.433Z,51.90
2018-09-21T12:16:28.376Z,51.10
2018-09-21T12:18:57.276Z,50.50
2018-09-21T12:21:26.208Z,51.90
2018-09-21T12:23:55.105Z,50.50
2018-09-21T12:26:24.004Z,50.00
2018-09-21T12:28:52.908Z,50.80
2018-09-21T12:31:21.931Z,49.60
2018-09-21T12:33:50.802Z,49.60
2018-09-21T12:36:19.680Z,51.00
2018-09-21T12:38:48.618Z,50.30
2018-09-21T12:41:17.515Z,50.30
2018-09-21T12:43:46.461Z,51.40
2018-09-21T12:46:21.616Z,50.80
2018-09-21T12:48:51.911Z,50.90
2018-09-21T12:51:20.863Z,51.30
2018-09-21T12:53:49.827Z,51.10
2018-09-21T12:56:18.807Z,51.00
2018-09-21T12:58:47.865Z,50.00
2018-09-21T13:01:16.758Z,49.70
2018-09-21T13:03:45.776Z,50.20
2018-09-21T13:06:14.684Z,49.90
2018-09-21T13:08:43.767Z,50.30
2018-09-21T13:11:12.869Z,51.50
2018-09-21T13:13:41.842Z,50.80
2018-09-21T13:16:10.924Z,51.00
2018-09-21T13:18:39.883Z,50.90
2018-09-21T13:21:09.314Z,51.30
2018-09-21T13:23:40.045Z,50.10
2018-09-21T13:26:09.026Z,49.80
2018-09-21T13:28:37.960Z,48.50
2018-09-21T13:31:06.943Z,49.40
2018-09-21T13:33:36.714Z,50.30
2018-09-21T13:36:05.727Z,49.60
2018-09-21T13:38:34.832Z,50.20
2018-09-21T13:41:03.874Z,50.10
2018-09-21T13:43:32.925Z,49.50
2018-09-21T13:46:02.014Z,49.30
2018-09-21T13:48:30.992Z,50.00
2018-09-21T13:51:00.102Z,49.10
2018-09-21T13:53:29.117Z,49.70
2018-09-21T13:55:58.902Z,49.80
2018-09-21T13:58:28.019Z,50.30
2018-09-21T14:00:56.997Z,50.40
2018-09-21T14:03:26.056Z,50.30
2018-09-21T14:05:55.017Z,50.20
2018-09-21T14:08:24.044Z,51.20
2018-09-21T14:10:53.665Z,51.10
2018-09-21T14:13:22.679Z,50.30
2018-09-21T14:15:51.884Z,50.40
2018-09-21T14:18:21.345Z,50.60
2018-09-21T14:20:50.594Z,51.00
2018-09-21T14:23:19.677Z,51.60
2018-09-21T14:25:48.735Z,50.60
2018-09-21T14:28:18.437Z,50.30
2018-09-21T14:30:47.491Z,50.80
2018-09-21T14:33:16.410Z,51.10
2018-09-21T14:35:45.419Z,50.60
2018-09-21T14:38:14.407Z,51.10
2018-09-21T14:40:43.389Z,50.70
2018-09-21T14:43:12.307Z,51.10
2018-09-21T14:45:41.206Z,50.80
2018-09-21T14:48:10.153Z,51.40
2018-09-21T14:50:39.954Z,51.60
2018-09-21T14:53:08.908Z,51.60
2018-09-21T14:55:37.872Z,52.10
2018-09-21T14:58:06.843Z,52.60
2018-09-21T15:00:35.816Z,52.80
2018-09-21T15:03:04.702Z,52.70
2018-09-21T15:05:33.591Z,53.40
2018-09-21T15:08:02.560Z,53.60
2018-09-21T15:10:31.470Z,54.20
2018-09-21T15:13:00.341Z,53.80
2018-09-21T15:15:29.399Z,53.80
2018-09-21T15:17:58.276Z,54.40
2018-09-21T15:20:27.805Z,54.30
2018-09-21T15:22:56.763Z,54.70
2018-09-21T15:25:25.764Z,54.50
2018-09-21T15:27:54.726Z,54.70
2018-09-21T15:30:23.623Z,55.80
2018-09-21T15:32:52.496Z,55.80
2018-09-21T15:35:21.420Z,56.40
2018-09-21T15:37:51.839Z,57.30
2018-09-21T15:40:21.685Z,56.80
2018-09-21T15:42:50.569Z,57.80
2018-09-21T15:45:19.478Z,57.80
2018-09-21T15:47:48.384Z,58.50
2018-09-21T15:50:17.263Z,58.20
2018-09-21T15:52:48.968Z,59.30
2018-09-21T15:55:18.070Z,59.50
2018-09-21T15:57:47.017Z,60.30
2018-09-21T16:00:16.067Z,60.90
2018-09-21T16:02:44.942Z,61.10
2018-09-21T16:05:14.294Z,61.50
2018-09-21T16:07:43.288Z,61.40
2018-09-21T16:10:12.166Z,61.90
2018-09-21T16:12:41.053Z,63.00
2018-09-21T16:15:10.075Z,62.80
2018-09-21T16:17:39.117Z,63.70
2018-09-21T16:20:08.106Z,64.20
2018-09-21T16:22:37.024Z,64.60
2018-09-21T16:25:06.785Z,64.70
2018-09-21T16:27:36.722Z,64.90
2018-09-21T16:30:05.958Z,65.00
2018-09-21T16:32:34.910Z,65.40
2018-09-21T16:35:04.049Z,65.10
2018-09-21T16:37:33.030Z,65.40
2018-09-21T16:40:02.034Z,65.60
2018-09-21T16:42:31.441Z,66.30
2018-09-21T16:45:01.726Z,66.60
2018-09-21T16:47:30.798Z,66.50
2018-09-21T16:49:59.849Z,66.90
2018-09-21T16:52:28.825Z,67.40
2018-09-21T16:54:57.887Z,67.70
2018-09-21T16:57:26.960Z,68.30
2018-09-21T16:59:56.055Z,68.70
2018-09-21T17:02:25.084Z,69.10
2018-09-21T17:04:54.056Z,68.30
2018-09-21T17:07:22.908Z,68.50
2018-09-21T17:09:51.874Z,68.60
2018-09-21T17:12:20.746Z,68.60
2018-09-21T17:14:49.875Z,69.00
2018-09-21T17:17:18.734Z,68.80
2018-09-21T17:19:47.667Z,68.20
2018-09-21T17:22:16.584Z,68.00
2018-09-21T17:24:45.472Z,67.50
2018-09-21T17:27:14.340Z,66.70
2018-09-21T17:29:43.253Z,66.60
2018-09-21T17:32:12.221Z,67.20
2018-09-21T17:34:41.029Z,67.30
2018-09-21T17:37:10.071Z,67.30
2018-09-21T17:39:39.121Z,67.30
2018-09-21T17:42:08.092Z,67.40
2018-09-21T17:44:37.531Z,66.90
2018-09-21T17:47:06.689Z,66.40
2018-09-21T17:49:35.720Z,67.50
2018-09-21T17:52:04.656Z,66.70
2018-09-21T17:54:33.637Z,66.70
2018-09-21T17:57:02.581Z,66.90
2018-09-21T17:59:31.493Z,66.70
2018-09-21T18:02:00.509Z,66.90
2018-09-21T18:04:29.567Z,67.30
2018-09-21T18:06:58.609Z,67.30
2018-09-21T18:09:27.576Z,68.00
2018-09-21T18:11:56.546Z,68.10
2018-09-21T18:14:25.548Z,68.70
2018-09-21T18:16:54.554Z,69.00
2018-09-21T18:19:23.542Z,69.70
2018-09-21T18:21:52.641Z,70.10
2018-09-21T18:24:21.533Z,69.00
2018-09-21T18:26:51.666Z,69.40
2018-09-21T18:29:20.692Z,69.60
2018-09-21T18:31:50.569Z,70.30
2018-09-21T18:34:19.503Z,70.40
2018-09-21T18:36:48.441Z,70.80
2018-09-21T18:39:17.519Z,70.70
2018-09-21T18:41:46.597Z,71.00
2018-09-21T18:44:15.511Z,71.10
2018-09-21T18:46:44.535Z,71.30
2018-09-21T18:49:13.490Z,71.50
2018-09-21T18:51:42.370Z,72.10
2018-09-21T18:54:11.392Z,72.40
2018-09-21T18:56:40.264Z,72.40
2018-09-21T18:59:09.149Z,73.10
2018-09-21T19:01:38.164Z,73.70
2018-09-21T19:04:07.131Z,74.80
2018-09-21T19:06:36.042Z,74.90
2018-09-21T19:09:07.048Z,74.50
2018-09-21T19:11:35.936Z,74.90
2018-09-21T19:14:05.285Z,75.00
2018-09-21T19:16:34.225Z,74.90
2018-09-21T19:19:03.120Z,75.70
2018-09-21T19:21:32.238Z,75.60
2018-09-21T19:24:01.838Z,75.10
2018-09-21T19:26:30.872Z,75.20
2018-09-21T19:29:00.414Z,75.40
2018-09-21T19:31:29.502Z,75.50
2018-09-21T19:33:58.509Z,75.80
2018-09-21T19:36:27.503Z,75.50
2018-09-21T19:38:56.568Z,76.20
2018-09-21T19:41:25.602Z,75.90
2018-09-21T19:43:54.620Z,76.50
2018-09-21T19:46:23.595Z,76.40
2018-09-21T19:48:52.669Z,76.70
2018-09-21T19:51:21.565Z,77.00
2018-09-21T19:53:50.545Z,77.00
2018-09-21T19:56:19.450Z,76.70
2018-09-21T19:58:48.555Z,76.70
2018-09-21T20:01:17.677Z,77.20
2018-09-21T20:03:46.624Z,77.60
2018-09-21T20:06:16.341Z,78.10
2018-09-21T20:08:45.252Z,78.10
2018-09-21T20:11:14.342Z,78.30
2018-09-21T20:13:43.398Z,78.40
2018-09-21T20:16:12.263Z,79.00
2018-09-21T20:18:41.124Z,79.20
2018-09-21T20:21:10.301Z,79.30
2018-09-21T20:23:39.920Z,79.80
2018-09-21T20:26:09.679Z,80.10
2018-09-21T20:28:39.126Z,80.40
2018-09-21T20:31:13.379Z,80.50
2018-09-21T20:33:42.746Z,80.70
2018-09-21T20:36:11.628Z,80.90
2018-09-21T20:38:40.531Z,81.30
2018-09-21T20:41:09.468Z,81.50
2018-09-21T20:43:38.344Z,81.70
2018-09-21T20:46:07.224Z,82.00
2018-09-21T20:48:36.249Z,82.00
2018-09-21T20:51:05.104Z,82.30
2018-09-21T20:53:33.972Z,82.60
2018-09-21T20:56:02.943Z,82.80
2018-09-21T20:58:31.837Z,82.90
2018-09-21T21:01:00.760Z,83.00
2018-09-21T21:03:29.663Z,82.40
2018-09-21T21:05:58.532Z,82.60
2018-09-21T21:08:27.415Z,82.70
2018-09-21T21:10:56.371Z,83.40
2018-09-21T21:13:25.247Z,83.30
2018-09-21T21:15:54.245Z,83.20
2018-09-21T21:18:23.641Z,82.90
2018-09-21T21:20:52.606Z,83.60
2018-09-21T21:23:21.506Z,83.40
2018-09-21T21:25:50.381Z,83.70
2018-09-21T21:28:19.426Z,83.70
2018-09-21T21:30:48.314Z,83.90
2018-09-21T21:33:17.181Z,83.50
2018-09-21T21:35:46.152Z,83.30
2018-09-21T21:38:15.046Z,83.30
2018-09-21T21:40:44.725Z,83.40
2018-09-21T21:43:13.637Z,83.50
2018-09-21T21:45:42.517Z,83.50
2018-09-21T21:48:12.396Z,83.50
2018-09-21T21:50:42.376Z,83.30
2018-09-21T21:53:11.219Z,83.30
2018-09-21T21:55:40.072Z,83.60
2018-09-21T21:58:09.050Z,83.20
2018-09-21T22:00:43.165Z,84.30
2018-09-21T22:03:12.101Z,83.60
2018-09-21T22:05:41.009Z,83.70
2018-09-21T22:08:09.884Z,83.50
2018-09-21T22:10:38.795Z,83.20
2018-09-21T22:13:12.832Z,82.80
2018-09-21T22:15:41.802Z,82.20
2018-09-21T22:18:10.732Z,81.90
2018-09-21T22:20:40.437Z,81.70
2018-09-21T22:23:09.435Z,81.10
2018-09-21T22:25:39.241Z,81.30
2018-09-21T22:28:08.243Z,81.20
2018-09-21T22:30:37.520Z,81.40
2018-09-21T22:33:06.453Z,81.10
2018-09-21T22:35:35.333Z,81.10
2018-09-21T22:38:04.387Z,80.90
2018-09-21T22:40:33.266Z,81.30
2018-09-21T22:43:02.261Z,81.50
2018-09-21T22:45:31.362Z,81.40
2018-09-21T22:48:00.560Z,81.80
2018-09-21T22:50:29.729Z,80.80
2018-09-21T22:52:58.964Z,80.50
2018-09-21T22:55:28.099Z,79.40
2018-09-21T22:57:57.253Z,78.40
2018-09-21T23:00:26.621Z,77.20
2018-09-21T23:02:55.827Z,76.60
2018-09-21T23:05:25.045Z,76.50
2018-09-21T23:07:54.572Z,76.20
2018-09-21T23:10:23.911Z,75.40
2018-09-21T23:12:53.688Z,75.40
2018-09-21T23:15:22.894Z,75.20
2018-09-21T23:17:52.109Z,75.20
2018-09-21T23:20:21.456Z,75.40
2018-09-21T23:22:50.696Z,75.50
2018-09-21T23:25:19.860Z,75.20
2018-09-21T23:27:48.967Z,75.20
2018-09-21T23:30:18.237Z,74.90
2018-09-21T23:32:47.256Z,74.30
2018-09-21T23:35:16.336Z,73.80
2018-09-21T23:37:45.396Z,73.30
2018-09-21T23:40:14.378Z,73.00
2018-09-21T23:42:44.958Z,72.50
2018-09-21T23:45:14.123Z,72.40
2018-09-21T23:47:43.339Z,72.60
2018-09-21T23:50:12.479Z,72.60
2018-09-21T23:52:41.514Z,73.00
2018-09-21T23:55:10.637Z,73.10
2018-09-21T23:57:39.848Z,73.50
